Time;durP1;ratioP1;P1;durP2;ratioP2;P2;SDS_P1;SDS_P2;PMS_P1;PMS_P2;Temp;Humidity;BMP_temperature;BMP_pressure;BME280_temperature;BME280_humidity;BME280_pressure;Samples;Min_cycle;Max_cycle;Signal;HPM_P1;HPM_P2
2023/04/22 00:02:07;;;;;;;7.32;5.50;;;;;;;9.27;94.24;99372.72;4844018;29;20053;-79
2023/04/22 00:04:32;;;;;;;7.97;6.38;;;;;;;9.27;92.76;99362.44;4813687;29;20042;-78
2023/04/22 00:06:58;;;;;;;9.70;6.55;;;;;;;9.24;95.15;99370.56;4828956;29;20046;-78
2023/04/22 00:09:24;;;;;;;7.82;5.93;;;;;;;9.25;93.48;99355.56;4831075;29;20041;-78
2023/04/22 00:11:50;;;;;;;9.75;7.65;;;;;;;9.24;95.91;99342.88;4828946;29;20049;-78
2023/04/22 00:14:15;;;;;;;8.95;6.65;;;;;;;9.23;95.26;99338.47;4828872;29;20034;-78
2023/04/22 00:16:41;;;;;;;9.60;6.88;;;;;;;9.23;96.42;99344.00;4843892;29;20049;-78
2023/04/22 00:19:06;;;;;;;9.38;7.18;;;;;;;9.23;96.04;99335.69;4845172;29;20041;-78
2023/04/22 00:21:32;;;;;;;11.10;7.55;;;;;;;9.20;98.65;99320.53;4828829;29;20038;-78
2023/04/22 00:23:57;;;;;;;9.95;7.22;;;;;;;9.17;98.50;99324.75;4831789;29;20046;-78
2023/04/22 00:26:23;;;;;;;11.10;7.60;;;;;;;9.21;98.07;99318.56;4838935;29;20032;-78
2023/04/22 00:28:48;;;;;;;12.23;7.35;;;;;;;9.14;99.21;99313.47;4823280;29;20514;-78
2023/04/22 00:31:14;;;;;;;12.82;8.93;;;;;;;9.12;100.00;99315.72;4816469;29;20406;-78
2023/04/22 00:33:39;;;;;;;11.63;8.50;;;;;;;9.15;100.00;99315.91;4847202;29;20454;-78
2023/04/22 00:36:05;;;;;;;10.88;8.40;;;;;;;9.09;100.00;99308.88;4833858;29;20058;-78
2023/04/22 00:38:31;;;;;;;9.85;7.97;;;;;;;9.13;100.00;99309.88;4831166;29;20107;-78
2023/04/22 00:40:56;;;;;;;10.55;8.02;;;;;;;9.12;100.00;99310.19;4843616;29;20042;-77
2023/04/22 00:43:21;;;;;;;9.43;7.88;;;;;;;9.11;100.00;99309.38;4828607;29;20041;-78
2023/04/22 00:45:48;;;;;;;10.65;8.05;;;;;;;9.08;99.87;99310.00;4818721;29;20045;-78
2023/04/22 00:48:13;;;;;;;9.77;7.85;;;;;;;9.08;100.00;99309.16;4850015;29;20065;-78
2023/04/22 00:50:39;;;;;;;13.20;9.38;;;;;;;9.03;100.00;99304.59;4847283;29;20048;-78
2023/04/22 00:53:04;;;;;;;10.55;8.20;;;;;;;9.05;100.00;99310.59;4831767;29;20042;-78
2023/04/22 00:55:30;;;;;;;11.00;7.80;;;;;;;9.04;100.00;99311.75;4816659;29;20046;-78
2023/04/22 00:57:55;;;;;;;10.65;7.63;;;;;;;9.08;100.00;99315.56;4816591;29;20049;-78
2023/04/22 01:00:25;;;;;;;9.40;7.47;;;;;;;9.06;100.00;99303.97;4846838;29;20099;-78
2023/04/22 01:02:51;;;;;;;11.85;8.60;;;;;;;9.07;100.00;99293.69;4831899;29;20042;-78
2023/04/22 01:05:17;;;;;;;11.55;8.40;;;;;;;9.07;100.00;99290.94;4816729;29;20049;-78
2023/04/22 01:07:42;;;;;;;12.40;8.48;;;;;;;9.06;100.00;99286.53;4816654;29;20049;-78
2023/04/22 01:10:08;;;;;;;12.57;8.43;;;;;;;9.01;100.00;99278.34;4837508;29;20045;-78
2023/04/22 01:12:33;;;;;;;13.38;8.48;;;;;;;8.98;100.00;99274.25;4819353;29;20077;-78
2023/04/22 01:15:00;;;;;;;10.77;8.02;;;;;;;8.97;100.00;99278.16;4816218;29;20407;-78
2023/04/22 01:17:25;;;;;;;12.50;8.85;;;;;;;8.95;100.00;99263.78;4831116;29;20076;-78
2023/04/22 01:19:51;;;;;;;11.18;8.10;;;;;;;8.94;100.00;99260.22;4831293;29;20038;-78
2023/04/22 01:22:17;;;;;;;12.88;8.70;;;;;;;8.96;100.00;99257.13;4831244;29;20042;-78
2023/04/22 01:24:42;;;;;;;11.23;8.68;;;;;;;8.93;100.00;99254.97;4831094;29;20038;-77
2023/04/22 01:27:07;;;;;;;10.25;7.60;;;;;;;8.95;100.00;99256.31;4834130;29;20066;-78
2023/04/22 01:29:34;;;;;;;9.32;6.80;;;;;;;8.99;100.00;99256.47;4822035;29;20142;-78
2023/04/22 01:32:00;;;;;;;12.77;7.13;;;;;;;9.01;100.00;99254.22;4849261;29;20076;-79
2023/04/22 01:34:25;;;;;;;8.70;6.68;;;;;;;9.01;99.40;99248.69;4831013;29;20034;-78
2023/04/22 01:36:51;;;;;;;10.52;7.78;;;;;;;9.01;100.00;99245.09;4834035;29;20057;-78
2023/04/22 01:39:16;;;;;;;8.45;7.03;;;;;;;8.97;99.90;99247.69;4833988;29;20080;-78
2023/04/22 01:41:42;;;;;;;10.32;7.97;;;;;;;8.99;100.00;99242.63;4833958;29;20105;-78
2023/04/22 01:44:07;;;;;;;10.98;7.65;;;;;;;8.95;100.00;99244.41;4831615;29;20053;-78
2023/04/22 01:46:33;;;;;;;12.75;7.82;;;;;;;8.96;100.00;99248.81;4830909;29;20495;-78
2023/04/22 01:48:58;;;;;;;9.52;7.45;;;;;;;8.99;100.00;99258.44;4830663;29;20456;-78
2023/04/22 01:51:24;;;;;;;8.55;6.95;;;;;;;8.98;98.30;99249.31;4830842;29;20045;-78
2023/04/22 01:53:50;;;;;;;9.45;6.72;;;;;;;9.00;98.28;99263.69;4815675;29;20049;-78
2023/04/22 01:56:15;;;;;;;11.32;6.40;;;;;;;9.02;97.07;99266.94;4845135;29;20098;-78
2023/04/22 01:58:41;;;;;;;9.32;6.95;;;;;;;9.03;96.07;99284.38;4815524;29;20046;-79
2023/04/22 02:01:08;;;;;;;8.45;6.40;;;;;;;9.04;96.49;99292.38;4818418;29;20521;-78
2023/04/22 02:03:33;;;;;;;8.27;5.95;;;;;;;9.07;95.40;99302.00;4815368;29;20061;-78
2023/04/22 02:05:59;;;;;;;8.95;5.97;;;;;;;9.08;95.43;99303.63;4857095;29;20049;-78
2023/04/22 02:08:24;;;;;;;8.00;6.32;;;;;;;9.08;94.00;99307.25;4833606;29;20048;-78
2023/04/22 02:10:50;;;;;;;7.57;6.00;;;;;;;9.08;94.73;99310.00;4848795;29;20049;-78
2023/04/22 02:13:15;;;;;;;10.70;6.82;;;;;;;9.06;94.43;99312.25;4845637;29;20041;-78
2023/04/22 02:15:40;;;;;;;8.50;6.20;;;;;;;9.07;94.82;99310.31;4833336;29;20046;-78
2023/04/22 02:18:06;;;;;;;8.30;6.60;;;;;;;9.04;94.78;99308.97;4833566;29;20102;-78
2023/04/22 02:20:32;;;;;;;9.65;7.47;;;;;;;9.05;95.93;99298.72;4833627;29;20077;-78
2023/04/22 02:22:58;;;;;;;10.98;8.32;;;;;;;9.00;98.45;99287.75;4845390;29;20104;-77
2023/04/22 02:25:23;;;;;;;12.95;7.55;;;;;;;8.97;95.79;99277.31;4830267;29;20403;-78
2023/04/22 02:27:49;;;;;;;14.15;9.02;;;;;;;8.94;99.04;99282.38;4818373;29;20053;-79
2023/04/22 02:30:14;;;;;;;11.95;8.95;;;;;;;8.90;100.00;99281.34;4802870;29;20053;-78
2023/04/22 02:32:40;;;;;;;11.55;7.95;;;;;;;8.89;99.04;99278.91;4833082;29;20065;-78
2023/04/22 02:35:06;;;;;;;11.45;8.40;;;;;;;8.87;99.64;99270.88;4851814;29;20053;-78
2023/04/22 02:37:31;;;;;;;10.27;8.07;;;;;;;8.84;99.39;99259.63;4803909;29;20054;-78
2023/04/22 02:39:57;;;;;;;9.85;7.80;;;;;;;8.84;98.55;99265.97;4845595;29;20052;-78
2023/04/22 02:42:22;;;;;;;10.20;7.35;;;;;;;8.80;99.73;99264.94;4845044;29;20042;-78
2023/04/22 02:44:47;;;;;;;10.23;8.10;;;;;;;8.79;100.00;99248.66;4830167;29;20046;-78
2023/04/22 02:47:13;;;;;;;11.02;8.23;;;;;;;8.81;100.00;99255.53;4829749;29;20049;-78
2023/04/22 02:49:38;;;;;;;9.00;6.85;;;;;;;8.85;98.77;99261.25;4844899;29;20050;-78
2023/04/22 02:52:04;;;;;;;8.95;6.07;;;;;;;8.93;96.00;99263.28;4829902;29;20495;-78
2023/04/22 02:54:29;;;;;;;8.88;6.57;;;;;;;8.89;95.46;99254.78;4814955;29;20053;-78
2023/04/22 02:56:56;;;;;;;8.32;6.55;;;;;;;8.88;95.82;99246.78;4832793;29;20034;-78
2023/04/22 02:59:22;;;;;;;7.85;5.65;;;;;;;8.87;95.06;99248.75;4847834;29;20481;-78
2023/04/22 03:01:47;;;;;;;8.68;6.53;;;;;;;8.87;96.32;99245.16;4829388;29;20042;-78
2023/04/22 03:04:14;;;;;;;7.82;6.32;;;;;;;8.89;96.14;99245.66;4845928;29;20038;-78
2023/04/22 03:06:39;;;;;;;8.65;6.30;;;;;;;8.88;96.17;99230.16;4814409;29;20054;-78
2023/04/22 03:09:05;;;;;;;8.43;6.35;;;;;;;8.87;98.27;99231.31;4829397;29;20045;-78
2023/04/22 03:11:30;;;;;;;8.68;6.32;;;;;;;8.88;99.35;99244.84;4814613;29;20162;-78
2023/04/22 03:13:56;;;;;;;10.00;7.03;;;;;;;8.88;98.46;99244.00;4829778;29;20030;-78
2023/04/22 03:16:24;;;;;;;8.45;5.93;;;;;;;8.86;97.76;99243.50;4845756;29;20037;-78
2023/04/22 03:18:50;;;;;;;9.63;5.72;;;;;;;8.86;97.25;99240.72;4847606;29;20076;-79
2023/04/22 03:21:15;;;;;;;7.88;5.80;;;;;;;8.84;97.31;99254.09;4814154;29;20704;-78
2023/04/22 03:23:41;;;;;;;7.70;5.95;;;;;;;8.83;96.98;99252.44;4844529;29;20049;-78
2023/04/22 03:26:06;;;;;;;8.77;5.90;;;;;;;8.85;97.32;99266.78;4837303;29;20037;-78
2023/04/22 03:28:32;;;;;;;7.55;5.75;;;;;;;8.82;96.63;99268.25;4849203;29;20042;-78
2023/04/22 03:30:57;;;;;;;6.50;5.20;;;;;;;8.81;96.52;99263.84;4859514;29;20045;-78
2023/04/22 03:33:23;;;;;;;5.88;4.90;;;;;;;8.81;96.21;99272.16;4832628;29;20093;-78
2023/04/22 03:35:48;;;;;;;7.90;5.68;;;;;;;8.83;96.32;99275.44;4834631;29;20522;-78
2023/04/22 03:38:14;;;;;;;7.85;5.97;;;;;;;8.81;96.00;99263.84;4814087;29;20049;-78
2023/04/22 03:40:40;;;;;;;6.63;5.43;;;;;;;8.77;96.24;99260.03;4814295;29;20041;-78
2023/04/22 03:43:06;;;;;;;6.07;4.95;;;;;;;8.79;96.58;99262.50;4832405;29;20506;-78
2023/04/22 03:45:31;;;;;;;7.72;5.63;;;;;;;8.77;97.52;99265.59;4844372;29;20042;-78
2023/04/22 03:47:57;;;;;;;6.38;5.07;;;;;;;8.77;97.47;99265.59;4813860;29;20046;-78
2023/04/22 03:50:22;;;;;;;6.78;5.57;;;;;;;8.76;98.60;99265.91;4844423;29;20046;-78
2023/04/22 03:52:48;;;;;;;7.88;5.82;;;;;;;8.76;98.85;99263.97;4829165;29;20044;-78
2023/04/22 03:55:13;;;;;;;8.32;5.25;;;;;;;8.75;99.42;99269.78;4817039;29;20046;-78
2023/04/22 03:57:39;;;;;;;8.75;6.45;;;;;;;8.75;98.84;99280.88;4847294;29;20105;-78
2023/04/22 04:00:05;;;;;;;8.45;6.40;;;;;;;8.73;98.19;99265.41;4814083;29;20042;-78
2023/04/22 04:02:31;;;;;;;8.18;5.68;;;;;;;8.74;98.58;99263.44;4828860;29;20516;-78
2023/04/22 04:04:56;;;;;;;8.90;6.13;;;;;;;8.73;98.81;99261.81;4828926;29;20103;-78
2023/04/22 04:07:22;;;;;;;8.65;6.20;;;;;;;8.76;99.09;99261.19;4829025;29;20042;-78
2023/04/22 04:09:47;;;;;;;8.73;5.47;;;;;;;8.74;99.56;99260.69;4828909;29;20038;-78
2023/04/22 04:12:13;;;;;;;7.80;5.32;;;;;;;8.76;99.54;99260.38;4844046;29;20076;-78
2023/04/22 04:14:38;;;;;;;7.15;5.53;;;;;;;8.75;99.30;99262.34;4831880;29;20046;-78
2023/04/22 04:17:04;;;;;;;7.35;6.18;;;;;;;8.70;100.00;99265.22;4832023;29;20538;-78
2023/04/22 04:19:29;;;;;;;7.22;5.80;;;;;;;8.71;99.46;99270.41;4828778;29;20042;-78
2023/04/22 04:21:55;;;;;;;8.57;6.50;;;;;;;8.71;100.00;99262.13;4851018;29;20038;-78
2023/04/22 04:24:21;;;;;;;7.85;6.13;;;;;;;8.69;100.00;99266.31;4847241;29;20046;-78
2023/04/22 04:26:47;;;;;;;8.25;5.70;;;;;;;8.70;100.00;99267.97;4829816;29;20049;-78
2023/04/22 04:29:13;;;;;;;7.88;6.22;;;;;;;8.68;100.00;99259.97;4821285;29;20038;-78
2023/04/22 04:31:38;;;;;;;7.93;5.90;;;;;;;8.64;100.00;99256.22;4817111;29;20077;-78
2023/04/22 04:34:04;;;;;;;7.10;5.38;;;;;;;8.62;100.00;99247.38;4850607;29;20403;-78
2023/04/22 04:36:31;;;;;;;7.93;6.07;;;;;;;8.61;100.00;99251.28;4840472;29;20056;-78
2023/04/22 04:38:57;;;;;;;7.45;5.93;;;;;;;8.60;100.00;99244.09;4819177;29;20048;-78
2023/04/22 04:41:25;;;;;;;7.70;6.10;;;;;;;8.59;100.00;99248.00;4820974;29;20058;-78
2023/04/22 04:43:51;;;;;;;7.07;5.72;;;;;;;8.60;100.00;99246.06;4833264;29;20042;-78
2023/04/22 04:46:16;;;;;;;8.15;5.82;;;;;;;8.55;100.00;99252.53;4831585;29;20045;-78
2023/04/22 04:48:44;;;;;;;9.73;7.18;;;;;;;8.54;100.00;99239.00;4847001;29;20045;-78
2023/04/22 04:51:10;;;;;;;8.45;5.90;;;;;;;8.53;100.00;99243.72;4832102;29;20037;-78
2023/04/22 04:53:36;;;;;;;7.25;5.88;;;;;;;8.51;100.00;99257.06;4847040;29;20106;-78
2023/04/22 04:56:01;;;;;;;7.07;5.50;;;;;;;8.47;100.00;99247.75;4847061;29;20049;-78
2023/04/22 04:58:27;;;;;;;9.32;5.63;;;;;;;8.52;100.00;99252.31;4831588;29;20503;-78
2023/04/22 05:00:52;;;;;;;8.05;5.82;;;;;;;8.47;100.00;99240.25;4831432;29;20103;-78
2023/04/22 05:03:17;;;;;;;7.90;6.38;;;;;;;8.46;100.00;99246.09;4846788;29;20054;-78
2023/04/22 05:05:45;;;;;;;8.05;6.10;;;;;;;8.48;100.00;99241.88;4819875;29;20094;-78
2023/04/22 05:08:10;;;;;;;7.40;5.93;;;;;;;8.45;100.00;99245.28;4850173;29;20068;-78
2023/04/22 05:10:36;;;;;;;6.20;5.45;;;;;;;8.42;100.00;99232.06;4831401;29;20042;-79
2023/04/22 05:13:01;;;;;;;8.23;6.30;;;;;;;8.43;100.00;99233.69;4819430;29;20415;-78
2023/04/22 05:15:27;;;;;;;7.70;6.40;;;;;;;8.44;100.00;99224.28;4846518;29;20572;-78
2023/04/22 05:17:52;;;;;;;8.05;6.50;;;;;;;8.44;100.00;99237.28;4816558;29;20045;-78
2023/04/22 05:20:18;;;;;;;7.85;6.13;;;;;;;8.40;100.00;99233.50;4819432;29;20049;-78
2023/04/22 05:22:44;;;;;;;9.10;6.70;;;;;;;8.40;100.00;99239.03;4816078;29;20096;-78
2023/04/22 05:25:10;;;;;;;7.82;6.18;;;;;;;8.40;100.00;99239.84;4849562;29;20042;-78
2023/04/22 05:27:35;;;;;;;7.82;6.38;;;;;;;8.41;100.00;99235.13;4848378;29;20533;-78
2023/04/22 05:30:01;;;;;;;8.48;6.85;;;;;;;8.41;100.00;99235.97;4857918;29;20479;-78
2023/04/22 05:32:26;;;;;;;8.45;6.53;;;;;;;8.39;100.00;99238.22;4846372;29;20062;-78
2023/04/22 05:34:52;;;;;;;8.57;6.43;;;;;;;8.38;100.00;99235.72;4835292;29;20041;-79
2023/04/22 05:37:17;;;;;;;9.10;6.78;;;;;;;8.40;100.00;99245.38;4832387;29;20050;-78
2023/04/22 05:39:43;;;;;;;8.07;6.63;;;;;;;8.38;100.00;99250.38;4833436;29;20053;-78
2023/04/22 05:42:08;;;;;;;8.60;6.57;;;;;;;8.39;100.00;99245.72;4848458;29;20403;-78
2023/04/22 05:44:34;;;;;;;7.85;6.00;;;;;;;8.40;100.00;99256.44;4851194;29;20057;-78
2023/04/22 05:46:59;;;;;;;9.95;6.53;;;;;;;8.43;100.00;99260.56;4832857;29;20461;-78
2023/04/22 05:49:25;;;;;;;8.05;5.80;;;;;;;8.43;100.00;99277.16;4832457;29;20064;-78
2023/04/22 05:51:50;;;;;;;8.20;5.72;;;;;;;8.47;100.00;99278.19;4835569;29;20045;-78
2023/04/22 05:54:15;;;;;;;7.88;5.90;;;;;;;8.50;100.00;99294.16;4848509;29;20042;-78
2023/04/22 05:56:41;;;;;;;7.55;5.57;;;;;;;8.54;100.00;99295.16;4818061;29;20041;-78
2023/04/22 05:59:06;;;;;;;6.18;5.43;;;;;;;8.60;100.00;99293.09;4833240;29;20037;-78
2023/04/22 06:01:32;;;;;;;8.38;6.22;;;;;;;8.64;100.00;99303.25;4817607;29;20054;-78
2023/04/22 06:03:57;;;;;;;9.10;5.95;;;;;;;8.69;100.00;99305.06;4818276;29;20042;-78
2023/04/22 06:06:23;;;;;;;11.05;7.88;;;;;;;8.76;100.00;99305.47;4833142;29;20069;-79
2023/04/22 06:08:48;;;;;;;8.38;6.90;;;;;;;8.83;100.00;99310.56;4817461;29;20060;-78
2023/04/22 06:11:14;;;;;;;12.32;8.80;;;;;;;8.91;100.00;99312.59;4848231;29;20042;-78
2023/04/22 06:13:39;;;;;;;7.97;6.60;;;;;;;8.98;100.00;99307.47;4847455;29;20525;-79
2023/04/22 06:16:05;;;;;;;9.02;6.53;;;;;;;9.07;100.00;99313.09;4818024;29;20048;-78
2023/04/22 06:18:31;;;;;;;12.25;9.10;;;;;;;9.15;100.00;99320.66;4830433;29;20042;-78
2023/04/22 06:20:57;;;;;;;8.82;6.28;;;;;;;9.22;100.00;99321.03;4830434;29;20038;-78
2023/04/22 06:23:22;;;;;;;12.85;9.45;;;;;;;9.31;100.00;99326.66;4815198;29;20117;-78
2023/04/22 06:25:47;;;;;;;8.43;7.22;;;;;;;9.37;100.00;99331.72;4831250;29;20068;-78
2023/04/22 06:28:13;;;;;;;9.77;6.60;;;;;;;9.45;100.00;99341.25;4826585;29;20081;-78
2023/04/22 06:30:38;;;;;;;7.13;5.53;;;;;;;9.53;100.00;99343.25;4833025;29;20053;-78
2023/04/22 06:33:04;;;;;;;8.57;6.20;;;;;;;9.61;100.00;99349.97;4845451;29;20042;-78
2023/04/22 06:35:30;;;;;;;9.32;6.20;;;;;;;9.68;100.00;99341.25;4822566;29;20105;-79
2023/04/22 06:37:55;;;;;;;8.27;6.28;;;;;;;9.75;100.00;99336.88;4830085;29;20060;-78
2023/04/22 06:40:21;;;;;;;7.80;5.75;;;;;;;9.81;100.00;99332.84;4831786;29;20049;-78
2023/04/22 06:42:46;;;;;;;9.35;6.28;;;;;;;9.90;100.00;99335.66;4829332;29;20697;-78
2023/04/22 06:45:12;;;;;;;7.85;5.82;;;;;;;9.97;100.00;99336.03;4845979;29;20541;-78
2023/04/22 06:47:38;;;;;;;8.40;7.00;;;;;;;10.05;100.00;99335.22;4814595;29;20045;-78
2023/04/22 06:50:06;;;;;;;9.00;6.85;;;;;;;10.13;100.00;99343.91;4829777;29;20038;-78
2023/04/22 06:52:31;;;;;;;11.63;7.85;;;;;;;10.20;100.00;99342.34;4830067;29;20045;-78
2023/04/22 06:54:57;;;;;;;8.07;6.38;;;;;;;10.27;100.00;99345.47;4829751;29;20041;-78
2023/04/22 06:57:22;;;;;;;9.93;7.60;;;;;;;10.36;100.00;99347.47;4829851;29;20041;-78
2023/04/22 06:59:48;;;;;;;7.82;6.40;;;;;;;10.44;100.00;99355.00;4831448;29;20380;-78
2023/04/22 07:02:13;;;;;;;11.68;9.18;;;;;;;10.50;100.00;99349.00;4829562;29;20081;-78
2023/04/22 07:04:39;;;;;;;11.30;9.48;;;;;;;10.59;100.00;99353.78;4814422;29;20038;-79
2023/04/22 07:07:05;;;;;;;11.68;9.45;;;;;;;10.70;100.00;99360.66;4829725;29;20049;-78
2023/04/22 07:09:30;;;;;;;11.00;6.75;;;;;;;10.81;100.00;99364.78;4831470;29;20114;-79
2023/04/22 07:11:56;;;;;;;8.38;6.82;;;;;;;10.92;100.00;99359.69;4829954;29;20098;-79
2023/04/22 07:14:24;;;;;;;8.93;6.63;;;;;;;11.02;100.00;99366.91;4814336;29;20681;-78
2023/04/22 07:16:50;;;;;;;9.45;6.60;;;;;;;11.16;100.00;99378.69;4814241;29;20060;-79
2023/04/22 07:19:15;;;;;;;8.93;6.80;;;;;;;11.25;100.00;99373.16;4829667;29;20049;-79
2023/04/22 07:21:40;;;;;;;8.00;5.85;;;;;;;11.34;100.00;99376.75;4829749;29;20045;-79
2023/04/22 07:24:10;;;;;;;7.97;5.93;;;;;;;11.44;100.00;99381.16;4829222;29;20041;-79
2023/04/22 07:26:37;;;;;;;8.38;6.22;;;;;;;11.53;100.00;99382.81;4844736;29;20046;-79
2023/04/22 07:29:02;;;;;;;8.73;6.85;;;;;;;11.63;100.00;99376.09;4816496;29;20053;-79
2023/04/22 07:31:28;;;;;;;9.95;7.50;;;;;;;11.69;99.39;99369.19;4844316;29;20042;-78
2023/04/22 07:33:53;;;;;;;8.60;7.22;;;;;;;11.78;99.46;99372.81;4829541;29;20034;-79
2023/04/22 07:36:18;;;;;;;10.13;7.15;;;;;;;11.85;98.39;99375.06;4829097;29;20058;-79
2023/04/22 07:38:44;;;;;;;10.48;7.20;;;;;;;11.93;98.01;99385.41;4825034;29;20039;-79
2023/04/22 07:41:09;;;;;;;9.40;7.28;;;;;;;11.98;96.66;99373.25;4844438;29;20091;-78
2023/04/22 07:43:35;;;;;;;9.77;8.02;;;;;;;12.05;97.26;99373.59;4814149;29;20053;-78
2023/04/22 07:46:01;;;;;;;9.48;6.22;;;;;;;12.10;94.57;99373.41;4841914;29;20046;-78
2023/04/22 07:48:26;;;;;;;7.95;6.93;;;;;;;12.15;96.04;99367.66;4812919;29;20073;-79
2023/04/22 07:50:52;;;;;;;10.00;7.07;;;;;;;12.23;93.11;99372.41;4842849;29;20045;-79
2023/04/22 07:53:17;;;;;;;8.63;6.70;;;;;;;12.29;92.99;99379.41;4857291;29;20038;-79
2023/04/22 07:55:43;;;;;;;10.60;7.70;;;;;;;12.39;94.59;99382.97;4806885;29;20046;-78
2023/04/22 07:58:08;;;;;;;7.47;6.00;;;;;;;12.45;92.90;99381.63;4836511;29;20042;-79
2023/04/22 08:00:34;;;;;;;10.82;8.23;;;;;;;12.53;95.70;99377.97;4817486;29;20053;-79
2023/04/22 08:03:01;;;;;;;11.63;8.52;;;;;;;12.62;94.18;99376.00;4820725;29;20117;-79
2023/04/22 08:05:26;;;;;;;11.32;7.00;;;;;;;12.78;91.71;99378.19;4818103;29;20042;-72
2023/04/22 08:07:51;;;;;;;11.20;7.57;;;;;;;12.88;93.97;99388.97;4837061;29;20038;-71
2023/04/22 08:10:17;;;;;;;9.77;7.72;;;;;;;13.00;94.76;99386.25;4834163;29;20046;-70
2023/04/22 08:12:42;;;;;;;9.48;7.15;;;;;;;13.14;92.44;99381.25;4829547;29;20052;-71
2023/04/22 08:15:08;;;;;;;8.68;6.90;;;;;;;13.29;92.16;99387.38;4809442;29;20124;-70
2023/04/22 08:17:34;;;;;;;10.10;6.88;;;;;;;13.45;91.79;99384.81;4837411;29;20034;-76
2023/04/22 08:20:00;;;;;;;8.63;6.78;;;;;;;13.65;92.46;99389.59;4824363;29;20503;-79
2023/04/22 08:22:26;;;;;;;7.05;5.32;;;;;;;13.82;90.42;99388.59;4832320;29;20562;-78
2023/04/22 08:24:51;;;;;;;6.45;4.72;;;;;;;14.00;81.19;99392.84;4840389;29;20043;-71
2023/04/22 08:27:18;;;;;;;6.18;5.40;;;;;;;14.16;81.85;99401.38;4834018;29;20053;-68
2023/04/22 08:29:43;;;;;;;8.25;7.03;;;;;;;14.38;87.94;99393.75;4817074;29;20048;-69
2023/04/22 08:32:09;;;;;;;10.30;7.38;;;;;;;14.69;87.96;99396.03;4816961;29;20062;-70
2023/04/22 08:34:34;;;;;;;10.23;7.57;;;;;;;14.96;86.49;99398.13;4841592;29;20685;-70
2023/04/22 08:37:00;;;;;;;9.25;6.57;;;;;;;15.22;86.12;99401.72;4846465;29;20060;-69
2023/04/22 08:39:25;;;;;;;6.57;5.22;;;;;;;15.48;84.14;99398.50;4817027;29;20046;-69
2023/04/22 08:41:50;;;;;;;11.00;7.25;;;;;;;15.71;79.98;99405.22;4816415;29;20079;-70
2023/04/22 08:44:16;;;;;;;8.82;7.68;;;;;;;15.88;74.35;99408.88;4850547;29;20034;-70
2023/04/22 08:46:45;;;;;;;7.25;5.50;;;;;;;16.07;72.36;99401.44;4834745;29;20049;-69
2023/04/22 08:49:13;;;;;;;6.50;5.65;;;;;;;16.29;71.69;99396.41;4838638;29;20041;-70
2023/04/22 08:51:39;;;;;;;7.63;6.60;;;;;;;16.47;70.39;99396.91;4834096;29;20041;-70
2023/04/22 08:54:04;;;;;;;7.72;6.35;;;;;;;16.72;72.22;99417.97;4831953;29;20041;-70
2023/04/22 08:56:30;;;;;;;9.05;6.65;;;;;;;16.90;71.41;99412.00;4831736;29;20042;-70
2023/04/22 08:58:55;;;;;;;8.90;6.55;;;;;;;17.08;69.46;99413.25;4847155;29;20412;-76
2023/04/22 09:01:21;;;;;;;6.13;5.00;;;;;;;17.21;65.73;99408.34;4831414;29;20065;-69
2023/04/22 09:03:47;;;;;;;7.90;5.50;;;;;;;17.29;66.58;99415.75;4831629;29;20034;-73
2023/04/22 09:06:13;;;;;;;8.77;7.47;;;;;;;17.41;66.30;99412.00;4830952;29;20045;-68
2023/04/22 09:08:39;;;;;;;7.93;6.13;;;;;;;17.58;67.26;99420.00;4816483;29;20495;-68
2023/04/22 09:11:04;;;;;;;8.90;6.78;;;;;;;17.76;67.56;99420.38;4847989;29;20049;-68
2023/04/22 09:13:30;;;;;;;9.52;7.80;;;;;;;17.94;65.90;99415.19;4831638;29;20448;-69
2023/04/22 09:15:55;;;;;;;8.05;6.63;;;;;;;18.12;65.44;99423.16;4846498;29;20399;-69
2023/04/22 09:18:20;;;;;;;7.80;6.50;;;;;;;18.31;64.82;99425.94;4846696;29;20038;-69
2023/04/22 09:20:53;;;;;;;10.63;7.53;;;;;;;18.47;63.08;99426.66;4846691;29;20098;-69
2023/04/22 09:23:18;;;;;;;8.18;7.18;;;;;;;18.64;62.09;99422.53;4831678;29;20507;-69
2023/04/22 09:25:44;;;;;;;8.80;7.50;;;;;;;18.78;62.07;99416.38;4851859;29;20068;-68
2023/04/22 09:28:16;;;;;;;11.60;8.70;;;;;;;18.90;64.28;99438.66;4820845;29;20081;-69
2023/04/22 09:30:43;;;;;;;10.35;8.18;;;;;;;19.00;62.15;99431.59;4844091;29;20041;-68
2023/04/22 09:33:08;;;;;;;6.93;5.47;;;;;;;19.13;61.96;99426.56;4831369;29;20046;-76
2023/04/22 09:35:36;;;;;;;7.95;7.05;;;;;;;19.23;62.16;99420.28;4848157;29;20049;-77
2023/04/22 09:38:03;;;;;;;8.55;6.60;;;;;;;19.36;60.84;99423.69;4847436;29;20125;-77
2023/04/22 09:40:29;;;;;;;6.88;6.18;;;;;;;19.42;60.40;99425.81;4847440;29;20042;-77
2023/04/22 09:42:57;;;;;;;7.22;5.72;;;;;;;19.57;60.21;99429.63;4847480;29;20042;-77
2023/04/22 09:45:36;;;;;;;8.30;5.38;;;;;;;19.69;59.61;99430.63;4848230;29;20376;-77
2023/04/22 09:48:13;;;;;;;6.45;5.45;;;;;;;19.79;59.25;99430.75;4847296;29;20552;-77
2023/04/22 09:50:40;;;;;;;8.68;6.65;;;;;;;19.88;59.65;99435.31;4846181;29;20529;-77
2023/04/22 09:53:07;;;;;;;7.15;5.55;;;;;;;20.03;58.69;99432.28;4846055;29;20187;-77
2023/04/22 09:55:35;;;;;;;7.35;6.22;;;;;;;20.12;59.01;99434.81;4847187;29;20045;-77
2023/04/22 09:58:14;;;;;;;7.50;5.30;;;;;;;20.27;59.04;99424.50;4846063;29;20046;-77
2023/04/22 10:00:47;;;;;;;7.65;5.82;;;;;;;20.46;59.18;99429.13;4838232;29;20132;-77
2023/04/22 10:03:13;;;;;;;8.18;5.93;;;;;;;20.57;57.41;99432.91;4846380;29;21625;-77
2023/04/22 10:05:40;;;;;;;8.82;6.47;;;;;;;20.72;58.35;99437.47;4845969;29;20038;-77
2023/04/22 10:08:06;;;;;;;8.98;6.85;;;;;;;20.78;58.67;99442.75;4830691;29;20048;-77
2023/04/22 10:10:32;;;;;;;6.97;5.82;;;;;;;20.91;56.59;99441.28;4847032;29;20073;-77
2023/04/22 10:12:58;;;;;;;7.65;6.00;;;;;;;20.91;55.68;99430.78;4830625;29;20487;-76
2023/04/22 10:15:24;;;;;;;8.07;6.20;;;;;;;20.96;56.43;99440.91;4846627;29;20042;-77
2023/04/22 10:17:49;;;;;;;9.60;5.80;;;;;;;21.02;56.70;99436.53;4844617;29;20060;-77
2023/04/22 10:20:15;;;;;;;7.32;5.53;;;;;;;21.11;57.90;99445.47;4830478;29;20049;-77
2023/04/22 10:22:41;;;;;;;9.85;4.50;;;;;;;21.19;56.77;99455.59;4845804;29;20046;-77
2023/04/22 10:25:33;;;;;;;5.40;4.60;;;;;;;21.30;55.84;99455.69;4855895;29;20570;-77
2023/04/22 10:28:06;;;;;;;6.22;4.00;;;;;;;21.38;55.61;99453.78;4855500;29;20050;-77
2023/04/22 10:30:33;;;;;;;6.35;4.68;;;;;;;21.40;55.03;99455.00;4854192;29;20049;-77
2023/04/22 10:33:37;;;;;;;5.90;4.72;;;;;;;21.51;54.30;99448.63;4859274;29;20463;-77
2023/04/22 10:36:24;;;;;;;11.63;5.25;;;;;;;21.58;54.10;99449.44;4790269;29;20067;-77
2023/04/22 10:38:53;;;;;;;7.13;4.95;;;;;;;21.56;54.29;99451.06;4786721;29;20186;-77
2023/04/22 10:41:25;;;;;;;6.07;3.85;;;;;;;21.59;54.06;99445.44;4789157;29;20063;-77
2023/04/22 10:44:00;;;;;;;6.25;4.65;;;;;;;21.61;54.70;99450.69;4790578;29;20051;-77
2023/04/22 10:46:33;;;;;;;6.35;4.07;;;;;;;21.59;54.27;99450.25;4786632;29;20089;-77
2023/04/22 10:48:59;;;;;;;5.63;3.65;;;;;;;21.59;54.10;99448.28;4789794;29;20047;-77
2023/04/22 10:51:43;;;;;;;4.72;3.05;;;;;;;21.62;54.13;99455.16;4789520;29;20066;-77
2023/04/22 10:54:27;;;;;;;4.03;3.53;;;;;;;21.64;54.48;99447.06;4789399;29;20043;-77
2023/04/22 10:57:08;;;;;;;5.55;3.38;;;;;;;21.64;53.63;99447.88;4789101;29;20051;-77
2023/04/22 10:59:40;;;;;;;5.55;3.35;;;;;;;21.62;54.60;99443.84;4786275;29;20127;-78
2023/04/22 11:02:05;;;;;;;5.43;3.25;;;;;;;21.68;54.48;99441.44;4789133;29;20043;-77
2023/04/22 11:04:31;;;;;;;7.03;3.42;;;;;;;21.72;54.41;99445.91;4771604;30;20048;-77
2023/04/22 11:07:21;;;;;;;4.60;3.15;;;;;;;21.82;54.58;99444.34;4830727;29;20049;-77
2023/04/22 11:09:49;;;;;;;6.18;3.10;;;;;;;21.82;53.90;99441.53;4852080;29;20050;-77
2023/04/22 11:12:37;;;;;;;6.28;3.08;;;;;;;21.96;54.27;99452.09;4861069;29;20076;-77
2023/04/22 11:15:06;;;;;;;4.50;2.80;;;;;;;22.06;54.89;99457.78;4852645;29;20129;-77
2023/04/22 11:17:31;;;;;;;3.97;2.20;;;;;;;22.20;53.84;99456.25;4859524;29;20094;-77
2023/04/22 11:19:57;;;;;;;3.70;2.60;;;;;;;22.28;53.48;99455.06;4863849;29;20046;-77
2023/04/22 11:22:23;;;;;;;4.78;2.92;;;;;;;22.41;54.09;99455.50;4852351;29;20041;-78
2023/04/22 11:24:59;;;;;;;5.20;2.17;;;;;;;22.51;53.06;99454.72;4844430;29;20042;-78
2023/04/22 11:27:25;;;;;;;7.75;2.00;;;;;;;22.60;51.91;99454.34;4829730;29;20038;-79
2023/04/22 11:30:04;;;;;;;7.97;2.83;;;;;;;22.66;51.70;99449.91;4857068;29;20042;-79
2023/04/22 11:32:30;;;;;;;5.28;2.92;;;;;;;22.63;50.36;99454.34;4829900;29;20114;-79